createdAt,value
2023-05-05T00:00:12.895Z,50.23
2023-05-05T00:03:02.277Z,50.63
2023-05-05T00:05:31.054Z,50.76
2023-05-05T00:07:59.538Z,50.84
2023-05-05T00:10:28.398Z,51.01
2023-05-05T00:12:56.984Z,51.29
2023-05-05T00:15:25.644Z,51.46
2023-05-05T00:17:54.239Z,51.85
2023-05-05T00:20:23.220Z,51.73
2023-05-05T00:22:52.251Z,51.72
2023-05-05T00:25:20.759Z,51.59
2023-05-05T00:27:49.472Z,51.59
2023-05-05T00:30:18.452Z,51.68
2023-05-05T00:32:49.038Z,51.73
2023-05-05T00:35:17.876Z,52.05
2023-05-05T00:37:46.536Z,52.14
2023-05-05T00:40:15.434Z,52.28
2023-05-05T00:42:46.717Z,52.17
2023-05-05T00:45:16.524Z,52.43
2023-05-05T00:47:47.668Z,52.47
2023-05-05T00:50:26.989Z,52.62
2023-05-05T00:52:57.739Z,52.53
2023-05-05T00:55:26.902Z,52.63
2023-05-05T00:57:55.751Z,52.62
2023-05-05T01:00:24.528Z,52.75
2023-05-05T01:02:53.476Z,52.65
2023-05-05T01:05:23.784Z,52.78
2023-05-05T01:08:07.653Z,52.87
2023-05-05T01:10:38.552Z,52.96
2023-05-05T01:13:19.187Z,53.10
2023-05-05T01:15:50.948Z,53.26
2023-05-05T01:18:23.971Z,53.23
2023-05-05T01:20:57.680Z,53.24
2023-05-05T01:23:52.444Z,53.45
2023-05-05T01:26:23.887Z,53.70
2023-05-05T01:29:19.514Z,53.65
2023-05-05T01:31:52.643Z,53.38
2023-05-05T01:34:25.190Z,53.26
2023-05-05T01:36:58.361Z,53.19
2023-05-05T01:39:29.224Z,53.11
2023-05-05T01:41:59.992Z,53.19
2023-05-05T01:44:28.873Z,53.29
2023-05-05T01:47:00.496Z,53.65
2023-05-05T01:49:30.220Z,53.59
2023-05-05T01:51:59.273Z,53.96
2023-05-05T01:54:28.037Z,54.03
2023-05-05T01:56:58.008Z,54.26
2023-05-05T01:59:27.150Z,54.13
2023-05-05T02:01:56.894Z,54.23
2023-05-05T02:04:26.093Z,54.28
2023-05-05T02:06:56.894Z,54.32
2023-05-05T02:09:26.769Z,54.54
2023-05-05T02:11:56.557Z,54.38
2023-05-05T02:14:29.025Z,54.26
2023-05-05T02:16:58.616Z,54.47
2023-05-05T02:19:30.531Z,54.59
2023-05-05T02:21:59.127Z,54.75
2023-05-05T02:24:27.972Z,54.97
2023-05-05T02:26:57.786Z,55.12
2023-05-05T02:29:32.840Z,55.22
2023-05-05T02:32:03.835Z,55.29
2023-05-05T02:34:36.258Z,55.16
2023-05-05T02:37:07.430Z,55.28
2023-05-05T02:39:43.000Z,55.43
2023-05-05T02:42:15.264Z,55.87
2023-05-05T02:44:45.708Z,56.13
2023-05-05T02:47:14.225Z,56.27
2023-05-05T02:49:43.632Z,56.17
2023-05-05T02:52:12.207Z,56.28
2023-05-05T02:54:41.013Z,56.12
2023-05-05T02:57:11.255Z,56.05
2023-05-05T02:59:46.936Z,56.18
2023-05-05T03:02:21.059Z,56.09
2023-05-05T03:04:55.061Z,56.08
2023-05-05T03:07:26.462Z,56.16
2023-05-05T03:10:02.454Z,55.90
2023-05-05T03:12:37.572Z,55.94
2023-05-05T03:15:09.833Z,56.03
2023-05-05T03:17:40.019Z,56.31
2023-05-05T03:20:11.773Z,56.50
2023-05-05T03:22:40.218Z,56.70
2023-05-05T03:25:09.957Z,56.83
2023-05-05T03:27:38.366Z,56.65
2023-05-05T03:30:09.771Z,56.87
2023-05-05T03:32:38.663Z,56.82
2023-05-05T03:35:08.850Z,56.92
2023-05-05T03:37:37.673Z,56.73
2023-05-05T03:40:11.192Z,56.52
2023-05-05T03:42:40.282Z,56.32
2023-05-05T03:45:10.210Z,56.07
2023-05-05T03:47:38.812Z,55.97
2023-05-05T03:50:09.458Z,55.88
2023-05-05T03:52:38.175Z,55.69
2023-05-05T03:55:08.381Z,55.57
2023-05-05T03:57:37.082Z,55.51
2023-05-05T04:00:10.379Z,55.33
2023-05-05T04:02:39.016Z,55.27
2023-05-05T04:05:08.196Z,55.26
2023-05-05T04:07:37.025Z,55.06
2023-05-05T04:10:09.024Z,54.83
2023-05-05T04:12:38.079Z,54.81
2023-05-05T04:15:08.564Z,54.96
2023-05-05T04:17:37.130Z,54.80
2023-05-05T04:20:07.858Z,54.89
2023-05-05T04:22:36.645Z,54.76
2023-05-05T04:25:06.775Z,55.09
2023-05-05T04:27:35.192Z,54.97
2023-05-05T04:30:04.274Z,54.96
2023-05-05T04:32:32.939Z,55.38
2023-05-05T04:35:01.672Z,55.56
2023-05-05T04:37:30.228Z,55.93
2023-05-05T04:39:58.860Z,55.56
2023-05-05T04:42:27.559Z,55.78
2023-05-05T04:44:56.116Z,55.60
2023-05-05T04:47:24.599Z,55.08
2023-05-05T04:49:55.412Z,55.15
2023-05-05T04:52:24.030Z,54.88
2023-05-05T04:54:53.153Z,54.88
2023-05-05T04:57:21.885Z,54.91
2023-05-05T04:59:50.470Z,54.95
2023-05-05T05:02:19.096Z,54.84
2023-05-05T05:04:48.119Z,54.14
2023-05-05T05:07:16.565Z,53.97
2023-05-05T05:09:45.253Z,53.98
2023-05-05T05:12:13.810Z,53.72
2023-05-05T05:14:42.529Z,53.71
2023-05-05T05:17:10.962Z,53.57
2023-05-05T05:19:39.372Z,53.70
2023-05-05T05:22:08.462Z,53.58
2023-05-05T05:24:39.711Z,52.95
2023-05-05T05:27:09.781Z,52.76
2023-05-05T05:29:38.848Z,51.91
2023-05-05T05:32:07.694Z,52.06
2023-05-05T05:34:36.612Z,51.64
2023-05-05T05:37:05.452Z,51.12
2023-05-05T05:39:34.118Z,50.87
2023-05-05T05:42:03.402Z,50.44
2023-05-05T05:44:32.371Z,50.50
2023-05-05T05:47:01.246Z,50.20
2023-05-05T05:49:29.794Z,49.86
2023-05-05T05:51:58.308Z,49.05
2023-05-05T05:54:27.345Z,49.19
2023-05-05T05:56:55.857Z,48.52
2023-05-05T05:59:24.388Z,48.96
2023-05-05T06:01:53.374Z,48.97
2023-05-05T06:04:22.147Z,48.56
2023-05-05T06:06:51.064Z,48.33
2023-05-05T06:09:19.970Z,47.94
2023-05-05T06:11:48.689Z,48.00
2023-05-05T06:14:18.249Z,47.71
2023-05-05T06:16:49.293Z,47.28
2023-05-05T06:19:18.328Z,46.48
2023-05-05T06:21:47.099Z,46.96
2023-05-05T06:24:15.617Z,47.03
2023-05-05T06:26:44.279Z,46.65
2023-05-05T06:29:13.430Z,45.54
2023-05-05T06:31:42.094Z,45.09
2023-05-05T06:34:10.808Z,44.61
2023-05-05T06:36:39.773Z,44.99
2023-05-05T06:39:08.299Z,44.00
2023-05-05T06:41:37.461Z,43.46
2023-05-05T06:44:06.351Z,44.21
2023-05-05T06:46:34.925Z,43.52
2023-05-05T06:49:03.437Z,43.46
2023-05-05T06:51:32.488Z,43.96
2023-05-05T06:54:01.156Z,44.00
2023-05-05T06:56:30.452Z,43.63
2023-05-05T06:58:59.026Z,43.15
2023-05-05T07:01:27.811Z,43.35
2023-05-05T07:03:56.517Z,43.16
2023-05-05T07:06:25.149Z,42.30
2023-05-05T07:08:53.753Z,41.91
2023-05-05T07:11:22.202Z,42.09
2023-05-05T07:13:50.529Z,42.36
2023-05-05T07:16:19.112Z,42.08
2023-05-05T07:18:47.673Z,42.03
2023-05-05T07:21:16.298Z,41.79
2023-05-05T07:23:47.381Z,41.43
2023-05-05T07:26:15.960Z,41.00
2023-05-05T07:28:45.102Z,41.43
2023-05-05T07:31:13.641Z,41.33
2023-05-05T07:33:42.188Z,40.88
2023-05-05T07:36:10.690Z,40.82
2023-05-05T07:38:39.502Z,40.37
2023-05-05T07:41:10.553Z,40.18
2023-05-05T07:43:41.700Z,40.54
2023-05-05T07:46:11.446Z,39.27
2023-05-05T07:48:41.466Z,39.45
2023-05-05T07:51:10.780Z,39.49
2023-05-05T07:53:40.812Z,39.99
2023-05-05T07:56:09.724Z,39.77
2023-05-05T07:58:38.236Z,39.71
2023-05-05T08:01:10.258Z,39.70
2023-05-05T08:03:39.154Z,39.26
2023-05-05T08:06:09.141Z,38.24
2023-05-05T08:08:38.184Z,39.10
2023-05-05T08:11:07.451Z,39.18
2023-05-05T08:13:36.146Z,39.91
2023-05-05T08:16:06.073Z,40.20
2023-05-05T08:18:37.082Z,39.74
2023-05-05T08:21:06.324Z,39.55
2023-05-05T08:23:35.007Z,39.76
2023-05-05T08:26:05.638Z,39.31
2023-05-05T08:28:35.992Z,38.74
2023-05-05T08:31:05.379Z,39.10
2023-05-05T08:33:34.220Z,38.97
2023-05-05T08:36:02.992Z,37.99
2023-05-05T08:38:31.655Z,38.48
2023-05-05T08:41:00.604Z,38.08
2023-05-05T08:43:29.641Z,37.86
2023-05-05T08:45:58.610Z,38.39
2023-05-05T08:48:28.839Z,38.20
2023-05-05T08:51:01.357Z,38.13
2023-05-05T08:53:33.428Z,37.29
2023-05-05T08:56:04.282Z,37.25
2023-05-05T08:58:33.148Z,37.63
2023-05-05T09:01:01.914Z,37.55
2023-05-05T09:03:31.170Z,36.44
2023-05-05T09:05:59.894Z,36.48
2023-05-05T09:08:29.216Z,36.37
2023-05-05T09:10:57.983Z,36.12
2023-05-05T09:13:29.567Z,36.15
2023-05-05T09:15:58.337Z,35.72
2023-05-05T09:18:27.071Z,35.45
2023-05-05T09:20:58.822Z,35.64
2023-05-05T09:23:28.312Z,35.37
2023-05-05T09:26:08.332Z,35.69
2023-05-05T09:28:37.475Z,35.42
2023-05-05T09:31:19.479Z,35.99
2023-05-05T09:33:48.322Z,36.30
2023-05-05T09:36:16.908Z,34.80
2023-05-05T09:39:05.649Z,34.56
2023-05-05T09:41:41.771Z,35.73
2023-05-05T09:44:10.602Z,35.95
2023-05-05T09:46:39.472Z,36.20
2023-05-05T09:49:17.614Z,36.29
2023-05-05T09:51:46.722Z,35.99
2023-05-05T09:54:26.015Z,35.67
2023-05-05T09:56:54.866Z,34.75
2023-05-05T09:59:24.363Z,34.25
2023-05-05T10:01:53.221Z,34.02
2023-05-05T10:04:27.508Z,33.95
2023-05-05T10:06:57.378Z,34.19
2023-05-05T10:09:27.022Z,34.38
2023-05-05T10:11:56.898Z,34.24
2023-05-05T10:14:26.505Z,34.15
2023-05-05T10:16:57.012Z,34.45
2023-05-05T10:19:26.555Z,34.25
2023-05-05T10:21:59.979Z,34.06
2023-05-05T10:24:30.664Z,34.52
2023-05-05T10:27:03.151Z,34.85
2023-05-05T10:29:42.991Z,34.27
2023-05-05T10:32:30.228Z,34.92
2023-05-05T10:35:09.512Z,35.22
2023-05-05T10:37:38.928Z,34.92
2023-05-05T10:40:09.945Z,34.92
2023-05-05T10:42:40.462Z,34.27
2023-05-05T10:45:09.761Z,34.06
2023-05-05T10:47:39.733Z,33.63
2023-05-05T10:50:13.886Z,32.93
2023-05-05T10:52:46.812Z,33.64
2023-05-05T10:55:17.649Z,33.57
2023-05-05T10:57:46.971Z,32.87
2023-05-05T11:00:47.733Z,32.92
2023-05-05T11:03:23.727Z,33.06
2023-05-05T11:06:12.599Z,33.28
2023-05-05T11:08:42.988Z,33.42
2023-05-05T11:11:12.268Z,34.07
2023-05-05T11:13:41.717Z,34.45
2023-05-05T11:16:44.984Z,34.55
2023-05-05T11:19:51.959Z,34.81
2023-05-05T11:22:20.698Z,35.10
2023-05-05T11:24:49.443Z,35.20
2023-05-05T11:27:18.462Z,34.87
2023-05-05T11:30:06.538Z,34.97
2023-05-05T11:32:35.690Z,34.65
2023-05-05T11:35:07.252Z,34.68
2023-05-05T11:37:37.775Z,34.77
2023-05-05T11:40:19.678Z,35.12
2023-05-05T11:42:48.768Z,35.52
2023-05-05T11:45:24.466Z,35.83
2023-05-05T11:47:53.308Z,35.27
2023-05-05T11:50:22.663Z,35.63
2023-05-05T11:52:51.244Z,35.65
2023-05-05T11:55:23.729Z,35.96
2023-05-05T11:57:52.825Z,35.81
2023-05-05T12:00:33.233Z,35.72
2023-05-05T12:03:01.967Z,35.60
2023-05-05T12:05:30.592Z,35.61
2023-05-05T12:07:59.337Z,35.94
2023-05-05T12:10:28.072Z,35.77
2023-05-05T12:12:56.758Z,35.32
2023-05-05T12:15:32.139Z,35.22
2023-05-05T12:18:02.759Z,34.79
2023-05-05T12:20:33.861Z,33.92
2023-05-05T12:23:03.636Z,33.95
2023-05-05T12:25:39.288Z,33.07
2023-05-05T12:28:08.390Z,33.46
2023-05-05T12:30:36.916Z,33.75
2023-05-05T12:33:06.731Z,34.15
2023-05-05T12:35:35.615Z,34.04
2023-05-05T12:38:04.104Z,34.89
2023-05-05T12:40:51.754Z,35.08
2023-05-05T12:43:31.696Z,35.11
2023-05-05T12:46:02.122Z,35.69
2023-05-05T12:48:31.016Z,35.75
2023-05-05T12:51:12.904Z,35.30
2023-05-05T12:53:44.019Z,34.87
2023-05-05T12:56:32.920Z,34.28
2023-05-05T12:59:02.132Z,34.68
2023-05-05T13:01:31.282Z,35.12
2023-05-05T13:04:15.462Z,35.63
2023-05-05T13:06:43.544Z,36.49
2023-05-05T13:09:24.096Z,37.10
2023-05-05T13:11:52.946Z,37.34
2023-05-05T13:14:21.666Z,37.36
2023-05-05T13:16:50.349Z,37.54
2023-05-05T13:19:19.443Z,37.95
2023-05-05T13:21:48.157Z,37.82
2023-05-05T13:24:23.691Z,37.91
2023-05-05T13:27:00.508Z,38.08
2023-05-05T13:29:31.714Z,38.35
2023-05-05T13:32:01.516Z,38.45
2023-05-05T13:34:29.976Z,38.91
2023-05-05T13:36:58.928Z,39.01
2023-05-05T13:39:27.965Z,38.98
2023-05-05T13:41:56.493Z,38.90
2023-05-05T13:44:24.995Z,39.08
2023-05-05T13:46:53.970Z,39.32
2023-05-05T13:49:23.180Z,39.66
2023-05-05T13:51:51.815Z,39.57
2023-05-05T13:54:20.638Z,39.35
2023-05-05T13:56:49.325Z,39.39
2023-05-05T13:59:17.757Z,39.59
2023-05-05T14:01:46.606Z,39.50
2023-05-05T14:04:15.736Z,39.42
2023-05-05T14:06:44.574Z,38.67
2023-05-05T14:09:13.289Z,37.83
2023-05-05T14:11:42.087Z,38.28
2023-05-05T14:14:11.232Z,38.51
2023-05-05T14:16:40.155Z,38.05
2023-05-05T14:19:09.015Z,38.11
2023-05-05T14:21:38.004Z,38.12
2023-05-05T14:24:07.688Z,37.81
2023-05-05T14:26:36.329Z,37.85
2023-05-05T14:29:05.502Z,38.31
2023-05-05T14:31:33.977Z,38.54
2023-05-05T14:34:02.546Z,38.51
2023-05-05T14:36:31.287Z,37.83
2023-05-05T14:39:01.015Z,37.56
2023-05-05T14:41:30.062Z,37.43
2023-05-05T14:43:58.938Z,37.85
2023-05-05T14:46:30.521Z,37.28
2023-05-05T14:48:59.663Z,36.83
2023-05-05T14:51:28.433Z,37.17
2023-05-05T14:53:57.001Z,37.09
2023-05-05T14:56:25.974Z,37.26
2023-05-05T14:58:54.748Z,37.39
2023-05-05T15:01:24.367Z,37.02
2023-05-05T15:03:53.676Z,36.37
2023-05-05T15:06:22.613Z,36.50
2023-05-05T15:08:52.019Z,36.51
2023-05-05T15:11:21.464Z,35.88
2023-05-05T15:13:49.992Z,36.29
2023-05-05T15:16:18.806Z,36.49
2023-05-05T15:18:47.518Z,36.01
2023-05-05T15:21:16.137Z,35.62
2023-05-05T15:23:44.918Z,35.14
2023-05-05T15:26:13.544Z,34.76
2023-05-05T15:28:42.163Z,34.98
2023-05-05T15:31:11.103Z,35.01
2023-05-05T15:33:39.928Z,35.09
2023-05-05T15:36:10.092Z,35.74
2023-05-05T15:38:42.273Z,35.79
2023-05-05T15:41:10.992Z,35.86
2023-05-05T15:43:39.597Z,35.55
2023-05-05T15:46:08.191Z,35.54
2023-05-05T15:48:37.010Z,35.68
2023-05-05T15:51:05.701Z,35.83
2023-05-05T15:53:34.340Z,36.22
2023-05-05T15:56:03.234Z,36.13
2023-05-05T15:58:31.716Z,35.93
2023-05-05T16:01:00.720Z,36.19
2023-05-05T16:03:29.348Z,36.55
2023-05-05T16:05:58.077Z,36.23
2023-05-05T16:08:26.896Z,36.11
2023-05-05T16:10:55.570Z,36.22
2023-05-05T16:13:24.299Z,36.62
2023-05-05T16:15:52.894Z,36.63
2023-05-05T16:18:21.722Z,36.51
2023-05-05T16:20:50.325Z,37.14
2023-05-05T16:23:19.147Z,37.11
2023-05-05T16:25:47.626Z,37.02
2023-05-05T16:28:16.366Z,37.25
2023-05-05T16:30:45.208Z,37.49
2023-05-05T16:33:14.142Z,37.56
2023-05-05T16:35:45.789Z,37.93
2023-05-05T16:38:14.889Z,38.27
2023-05-05T16:40:43.359Z,38.41
2023-05-05T16:43:12.561Z,38.41
2023-05-05T16:45:41.105Z,39.02
2023-05-05T16:48:09.988Z,39.38
2023-05-05T16:50:38.792Z,39.79
2023-05-05T16:53:08.376Z,40.00
2023-05-05T16:55:37.274Z,40.65
2023-05-05T16:58:05.983Z,40.55
2023-05-05T17:00:35.081Z,40.57
2023-05-05T17:03:03.886Z,41.17
2023-05-05T17:05:32.689Z,41.36
2023-05-05T17:08:02.533Z,41.69
2023-05-05T17:10:31.374Z,41.68
2023-05-05T17:13:01.169Z,42.21
2023-05-05T17:15:30.313Z,43.57
2023-05-05T17:17:58.962Z,43.63
2023-05-05T17:20:28.044Z,44.23
2023-05-05T17:22:56.940Z,44.15
2023-05-05T17:25:25.745Z,44.36
2023-05-05T17:27:54.954Z,44.04
2023-05-05T17:30:23.884Z,44.17
2023-05-05T17:32:52.791Z,44.17
2023-05-05T17:35:21.627Z,44.59
2023-05-05T17:37:50.443Z,44.76
2023-05-05T17:40:19.278Z,44.59
2023-05-05T17:42:48.147Z,44.81
2023-05-05T17:45:16.972Z,44.93
2023-05-05T17:47:45.541Z,45.31
2023-05-05T17:50:14.470Z,46.27
2023-05-05T17:52:44.668Z,47.57
2023-05-05T17:55:13.902Z,47.52
2023-05-05T17:57:42.553Z,47.16
2023-05-05T18:00:13.480Z,47.17
2023-05-05T18:02:42.603Z,48.04
2023-05-05T18:05:12.811Z,48.53
2023-05-05T18:07:41.777Z,48.57
2023-05-05T18:10:11.471Z,48.97
2023-05-05T18:12:40.550Z,48.93
2023-05-05T18:15:11.943Z,49.81
2023-05-05T18:17:40.977Z,50.12
2023-05-05T18:20:11.737Z,50.29
2023-05-05T18:22:40.628Z,50.35
2023-05-05T18:25:11.443Z,50.21
2023-05-05T18:27:41.084Z,50.08
2023-05-05T18:30:11.472Z,51.05
2023-05-05T18:32:40.391Z,50.97
2023-05-05T18:35:10.786Z,50.71
2023-05-05T18:37:41.569Z,50.62
2023-05-05T18:40:11.738Z,50.63
2023-05-05T18:42:41.074Z,51.77
2023-05-05T18:45:11.665Z,51.88
2023-05-05T18:47:40.893Z,51.78
2023-05-05T18:50:10.326Z,51.45
2023-05-05T18:52:38.790Z,51.59
2023-05-05T18:55:08.580Z,51.86
2023-05-05T18:57:37.662Z,52.02
2023-05-05T19:00:09.310Z,53.16
2023-05-05T19:02:38.016Z,52.95
2023-05-05T19:05:09.974Z,52.63
2023-05-05T19:07:39.656Z,53.14
2023-05-05T19:10:11.452Z,53.35
2023-05-05T19:12:40.160Z,53.99
2023-05-05T19:15:10.322Z,53.60
2023-05-05T19:17:39.247Z,53.94
2023-05-05T19:20:09.780Z,54.38
2023-05-05T19:22:39.633Z,54.71
2023-05-05T19:25:10.864Z,54.73
2023-05-05T19:27:40.674Z,54.46
2023-05-05T19:30:18.995Z,54.40
2023-05-05T19:32:50.354Z,54.40
2023-05-05T19:35:19.600Z,54.59
2023-05-05T19:37:49.666Z,54.76
2023-05-05T19:40:18.519Z,54.89
2023-05-05T19:42:50.524Z,54.96
2023-05-05T19:45:20.703Z,55.26
2023-05-05T19:47:49.352Z,55.31
2023-05-05T19:50:29.182Z,55.62
2023-05-05T19:53:00.582Z,55.48
2023-05-05T19:55:29.164Z,55.94
2023-05-05T19:58:00.310Z,55.65
2023-05-05T20:00:29.032Z,56.26
2023-05-05T20:02:57.743Z,56.30
2023-05-05T20:05:26.616Z,55.95
2023-05-05T20:07:55.147Z,56.27
2023-05-05T20:10:26.276Z,56.52
2023-05-05T20:12:57.691Z,56.24
2023-05-05T20:15:27.081Z,56.38
2023-05-05T20:17:57.724Z,56.68
2023-05-05T20:20:28.136Z,56.93
2023-05-05T20:22:56.757Z,57.23
2023-05-05T20:25:26.308Z,56.50
2023-05-05T20:27:55.113Z,57.24
2023-05-05T20:30:23.960Z,56.50
2023-05-05T20:33:01.673Z,57.14
2023-05-05T20:35:31.812Z,57.21
2023-05-05T20:38:03.461Z,56.83
2023-05-05T20:40:32.836Z,57.28
2023-05-05T20:43:01.455Z,57.10
2023-05-05T20:45:37.320Z,57.29
2023-05-05T20:48:09.193Z,57.47
2023-05-05T20:50:38.803Z,57.68
2023-05-05T20:53:08.549Z,57.66
2023-05-05T20:55:37.376Z,57.49
2023-05-05T20:58:09.506Z,57.89
2023-05-05T21:00:41.252Z,57.70
2023-05-05T21:03:10.551Z,58.77
2023-05-05T21:05:41.996Z,57.60
2023-05-05T21:08:10.792Z,58.14
2023-05-05T21:10:40.722Z,58.54
2023-05-05T21:13:09.552Z,58.37
2023-05-05T21:15:39.260Z,58.32
2023-05-05T21:18:07.900Z,58.09
2023-05-05T21:20:36.566Z,58.56
2023-05-05T21:23:05.419Z,58.94
2023-05-05T21:25:36.837Z,58.79
2023-05-05T21:28:05.908Z,59.98
2023-05-05T21:30:34.388Z,59.40
2023-05-05T21:33:02.859Z,59.56
2023-05-05T21:35:31.546Z,59.47
2023-05-05T21:38:00.150Z,60.03
2023-05-05T21:40:28.696Z,59.75
2023-05-05T21:42:57.379Z,60.02
2023-05-05T21:45:26.286Z,60.42
2023-05-05T21:47:55.169Z,60.31
2023-05-05T21:50:28.864Z,60.41
2023-05-05T21:52:58.401Z,60.03
2023-05-05T21:55:26.926Z,60.53
2023-05-05T21:57:55.984Z,60.65
2023-05-05T22:00:25.002Z,60.81
2023-05-05T22:02:53.668Z,60.43
2023-05-05T22:05:22.574Z,60.55
2023-05-05T22:07:51.150Z,60.86
2023-05-05T22:10:20.845Z,60.66
2023-05-05T22:12:50.415Z,60.40
2023-05-05T22:15:21.246Z,60.94
2023-05-05T22:17:50.499Z,61.28
2023-05-05T22:20:21.133Z,61.00
2023-05-05T22:22:49.560Z,61.18
2023-05-05T22:25:18.140Z,61.06
2023-05-05T22:27:46.825Z,60.71
2023-05-05T22:30:15.593Z,60.65
2023-05-05T22:32:44.293Z,61.47
2023-05-05T22:38:07.304Z,61.68
2023-05-05T22:40:36.257Z,61.93
2023-05-05T22:43:04.986Z,62.82
2023-05-05T22:45:34.042Z,62.25
2023-05-05T22:48:02.849Z,62.21
2023-05-05T22:50:31.797Z,62.17
2023-05-05T22:53:00.576Z,62.49
2023-05-05T22:55:29.393Z,62.08
2023-05-05T22:57:57.955Z,62.07
2023-05-05T23:00:26.734Z,62.32
2023-05-05T23:02:55.513Z,63.12
2023-05-05T23:05:24.289Z,63.25
2023-05-05T23:07:52.973Z,63.99
2023-05-05T23:10:21.644Z,63.92
2023-05-05T23:12:50.440Z,63.77
2023-05-05T23:15:19.360Z,64.92
2023-05-05T23:17:47.944Z,64.41
2023-05-05T23:20:17.189Z,65.33
2023-05-05T23:22:46.027Z,65.90
2023-05-05T23:25:14.521Z,65.86
2023-05-05T23:27:43.441Z,65.09
2023-05-05T23:30:13.863Z,64.95
2023-05-05T23:32:44.363Z,65.38
2023-05-05T23:35:13.234Z,65.49
2023-05-05T23:37:41.709Z,65.42
2023-05-05T23:40:11.094Z,65.41
2023-05-05T23:42:39.730Z,65.37
2023-05-05T23:45:11.023Z,65.66
2023-05-05T23:47:40.335Z,66.52
2023-05-05T23:50:10.641Z,66.12
2023-05-05T23:52:39.156Z,66.07
2023-05-05T23:55:10.112Z,66.25
2023-05-05T23:57:38.887Z,66.23
